Latest Weather Observations for Walgett

IDN60801

Issued at 10:02 am EDT Monday 27 February 2017 (issued every 30 minutes, with the page automatically refreshed every 10 minutes)

About weather observations | Map of weather stations | Latest weather observations for NSW | Other Formats
Station Details ID: 052088 Name: WALGETT AIRPORT AWS Lat: -30.04 Lon: 148.12 Height: 133.0 m
Data from the previous 72 hours. | See also: Recent months at Walgett
Date/Time
EDT
Temp
°C
App
Temp
°C
Dew
Point
°C
Rel
Hum
%
Delta-T
°C
Wind Press
QNH
hPa
Press
MSL
hPa
Rain since
9am
mm
Dir  Spd
km/h
Gust
km/h
Spd
kts
Gust
kts
27/10:00am 25.4 22.5 12.9 45 7.3 ENE 20 28 11 15 1020.2 1019.4 0.0
27/09:30am 24.2 21.3 12.8 49 6.6 E 20 26 11 14 1020.2 1019.4 0.0
27/09:00am 23.0 20.2 12.6 52 6.0 E 19 28 10 15 1019.9 1019.1 0.0
27/08:30am 21.7 19.0 12.8 57 5.1 E 19 28 10 15 1019.9 1019.1 0.0
27/08:00am 19.6 17.9 12.6 64 3.9 E 13 20 7 11 1019.5 1018.7 0.0
27/07:30am 18.0 16.7 12.5 70 3.1 E 11 15 6 8 1019.3 1018.5 0.0
27/07:00am 16.9 16.3 12.2 74 2.6 ESE 7 11 4 6 1019.0 1018.2 0.0
27/06:30am 17.5 16.6 12.6 73 2.7 E 9 13 5 7 1018.9 1018.1 0.0
27/06:00am 17.6 17.1 12.5 72 2.8 E 7 11 4 6 1018.6 1017.8 0.0
27/05:30am 18.0 16.7 12.5 70 3.1 E 11 15 6 8 1018.0 1017.2 0.0
27/05:00am 18.4 17.1 12.6 69 3.3 E 11 13 6 7 1017.9 1017.1 0.0
27/04:30am 18.6 17.7 12.6 68 3.4 E 9 13 5 7 1017.8 1017.0 0.0
27/04:00am 19.3 18.0 12.6 65 3.8 E 11 15 6 8 1017.9 1017.1 0.0
27/03:30am 19.8 18.6 12.8 64 4.0 E 11 17 6 9 1017.8 1017.0 0.0
27/03:00am 20.6 19.0 12.8 61 4.4 E 13 17 7 9 1017.8 1017.0 0.0
27/02:30am 20.7 19.6 13.2 62 4.3 ESE 11 15 6 8 1017.9 1017.1 0.0
27/02:00am 20.2 19.4 12.9 63 4.2 ESE 9 13 5 7 1017.8 1017.0 0.0
27/01:30am 20.6 19.4 12.8 61 4.4 ESE 11 15 6 8 1017.8 1017.0 0.0
27/01:00am 21.5 20.4 13.2 59 4.8 E 11 22 6 12 1017.8 1017.0 0.0
27/12:30am 22.1 20.2 12.9 56 5.3 ENE 15 20 8 11 1017.5 1016.7 0.0
27/12:00am 21.6 20.7 12.5 56 5.2 E 9 13 5 7 1017.3 1016.5 0.0
 
Date/Time
EDT
Temp
°C
App
Temp
°C
Dew
Point
°C
Rel
Hum
%
Delta-T
°C
Wind Press
QNH
hPa
Press
MSL
hPa
Rain since
9am
mm
Dir  Spd
km/h
Gust
km/h
Spd
kts
Gust
kts
26/11:30pm 22.6 21.0 12.8 54 5.6 ESE 13 17 7 9 1016.8 1016.0 0.0
26/11:00pm 23.0 22.1 12.6 52 6.0 ESE 9 13 5 7 1016.6 1015.8 0.0
26/10:30pm 24.3 23.1 12.9 49 6.6 ENE 11 13 6 7 1016.4 1015.6 0.0
26/10:00pm 25.5 23.3 13.4 47 7.1 ENE 17 22 9 12 1016.0 1015.2 0.0
26/09:30pm 25.9 23.7 13.4 46 7.4 ENE 17 22 9 12 1015.9 1015.1 0.0
26/09:00pm 26.3 23.2 13.4 45 7.6 ENE 22 32 12 17 1015.3 1014.5 0.0
26/08:30pm 27.1 23.3 12.3 39 8.6 E 24 35 13 19 1015.0 1014.2 0.0
26/08:00pm 27.1 25.8 13.8 44 7.9 ENE 13 17 7 9 1014.2 1013.4 0.0
26/07:30pm 27.4 26.0 13.4 42 8.3 SE 13 20 7 11 1013.9 1013.1 0.0
26/07:00pm 27.8 26.0 13.3 40 8.6 ESE 15 20 8 11 1013.7 1012.9 0.0
26/06:30pm 26.9 24.7 14.3 46 7.6 SE 19 24 10 13 1013.3 1012.5 0.0
26/06:00pm 27.4 25.6 15.4 48 7.4 SE 19 30 10 16 1013.1 1012.3 0.0
26/05:30pm 30.9 29.6 13.7 35 10.4 ESE 13 17 7 9 1012.9 1012.1 0.0
26/05:00pm 31.1 29.4 14.7 37 10.1 ENE 17 24 9 13 1012.8 1012.0 0.0
26/04:30pm 31.2 29.7 15.2 38 9.9 NE 17 24 9 13 1012.7 1011.9 0.0
26/04:00pm 30.3 29.2 16.3 42 8.8 ENE 17 24 9 13 1013.3 1012.5 0.0
26/03:30pm 30.2 28.1 14.7 39 9.5 ENE 19 26 10 14 1014.0 1013.2 0.0
26/03:00pm 32.1 29.7 14.3 34 10.9 E 20 26 11 14 1014.4 1013.6 0.0
26/02:30pm 32.1 28.7 13.8 33 11.1 E 24 33 13 18 1014.6 1013.8 0.0
26/02:00pm 32.8 30.2 14.9 34 11.1 E 22 37 12 20 1015.0 1014.2 0.0
26/01:30pm 32.5 29.0 14.6 34 11.0 ENE 26 35 14 19 1015.3 1014.5 0.0
26/01:00pm 31.3 27.8 14.4 35 10.3 ENE 26 41 14 22 1015.8 1015.0 0.0
26/12:30pm 30.8 27.3 15.6 39 9.5 ENE 28 39 15 21 1016.1 1015.3 0.0
26/12:00pm 29.4 26.0 15.9 44 8.4 ENE 28 39 15 21 1016.5 1015.7 0.0
26/11:57am 29.5 26.2 16.0 44 8.4 ENE 28 46 15 25 1016.4 1015.6 0.0
26/11:30am 28.6 25.4 16.2 47 7.7 ENE 28 39 15 21 1016.6 1015.8 0.0
26/11:00am 28.2 24.9 16.1 47 7.5 ENE 28 46 15 25 1016.8 1016.0 0.0
26/10:30am 27.2 24.0 16.2 51 6.8 ENE 28 37 15 20 1016.7 1015.9 0.0
26/10:00am 26.9 23.3 16.2 52 6.6 ENE 30 41 16 22 1016.6 1015.8 0.0
26/09:30am 26.9 24.5 16.5 53 6.5 ENE 24 35 13 19 1016.5 1015.7 0.0
26/09:00am 24.7 22.2 16.2 59 5.2 ENE 24 33 13 18 1016.3 1015.5 0.0
26/08:30am 23.8 22.6 16.1 62 4.7 ENE 17 26 9 14 1016.0 1015.2 0.0
26/08:00am 22.3 21.4 15.9 67 3.9 ENE 15 20 8 11 1015.8 1015.0 0.0
26/07:30am 21.3 20.3 15.6 70 3.4 ENE 15 19 8 10 1015.4 1014.6 0.0
26/07:00am 20.9 19.8 15.4 71 3.3 E 15 20 8 11 1015.0 1014.2 0.0
26/06:30am 21.5 20.8 15.3 68 3.7 E 13 20 7 11 1014.4 1013.6 0.0
26/06:00am 21.5 20.1 14.4 64 4.2 E 15 20 8 11 1013.9 1013.1 0.0
26/05:30am 21.6 20.8 15.0 66 3.9 E 13 17 7 9 1013.4 1012.6 0.0
26/05:00am 21.6 20.8 15.2 67 3.8 ESE 13 19 7 10 1013.6 1012.8 0.0
26/04:30am 21.8 20.8 15.6 68 3.7 E 15 24 8 13 1013.2 1012.4 0.0
26/04:00am 21.9 20.7 16.0 69 3.6 E 17 28 9 15 1013.1 1012.3 0.0
26/03:30am 22.0 20.6 15.6 67 3.9 E 17 22 9 12 1013.2 1012.4 0.0
26/03:00am 22.3 21.2 15.2 64 4.2 E 15 19 8 10 1013.3 1012.5 0.0
26/02:30am 22.9 20.9 15.0 61 4.7 ENE 19 24 10 13 1013.6 1012.8 0.0
26/02:00am 23.2 21.8 15.5 62 4.6 ESE 17 24 9 13 1014.1 1013.3 0.0
26/01:30am 23.7 21.8 15.7 61 4.9 NE 20 28 11 15 1013.0 1012.2 0.0
26/01:00am 23.8 22.9 15.8 61 4.9 ENE 15 22 8 12 1013.0 1012.2 0.0
26/12:30am 23.9 22.3 15.9 61 4.9 ENE 19 26 10 14 1013.0 1012.2 0.0
26/12:00am 24.7 22.6 15.3 56 5.7 ENE 20 30 11 16 1013.1 1012.3 0.0
 
Date/Time
EDT
Temp
°C
App
Temp
°C
Dew
Point
°C
Rel
Hum
%
Delta-T
°C
Wind Press
QNH
hPa
Press
MSL
hPa
Rain since
9am
mm
Dir  Spd
km/h
Gust
km/h
Spd
kts
Gust
kts
25/11:30pm 24.5 22.8 16.2 60 5.1 E 20 28 11 15 1012.9 1012.1 0.0
25/11:00pm 25.2 22.3 15.2 54 6.1 E 24 35 13 19 1013.0 1012.2 0.0
25/10:30pm 25.8 22.8 14.9 51 6.6 ENE 24 35 13 19 1012.6 1011.8 0.0
25/10:00pm 26.4 24.0 15.4 50 6.7 E 22 35 12 19 1012.3 1011.5 0.0
25/09:34pm 27.2 23.4 14.6 46 7.6 E 28 46 15 25 1012.1 1011.3 0.0
25/09:30pm 27.1 23.0 14.8 47 7.5 ESE 30 46 16 25 1012.0 1011.2 0.0
25/09:19pm 27.8 23.9 14.4 43 8.1 ESE 28 48 15 26 1011.8 1011.0 0.0
25/09:00pm 29.7 29.1 12.2 34 10.3 NE 7 26 4 14 1011.1 1010.3 0.0
25/08:30pm 30.9 29.5 12.3 32 11.0 NE 11 15 6 8 1010.5 1009.6 0.0
25/08:00pm 34.2 30.9 8.0 20 14.7 SSW 15 30 8 16 1009.9 1009.0 0.0
25/07:30pm 35.6 31.4 4.0 14 16.8 SSW 15 24 8 13 1009.2 1008.4 0.0
25/07:00pm 37.2 31.7 0.5 10 18.7 SW 19 24 10 13 1008.8 1008.0 0.0
25/06:30pm 38.1 32.1 1.2 10 19.0 SW 22 37 12 20 1008.5 1007.7 0.0
25/06:00pm 38.4 32.7 2.8 11 18.9 SW 22 32 12 17 1008.6 1007.8 0.0
25/05:30pm 38.2 34.4 3.8 12 18.5 SSW 13 20 7 11 1008.7 1007.9 0.0
25/05:00pm 39.6 34.7 2.3 10 19.8 S 17 30 9 16 1008.9 1008.1 0.0
25/04:45pm 39.4 35.4 4.7 12 19.0 SSW 15 37 8 20 1009.0 1008.2 0.0
25/04:30pm 37.4 34.1 4.4 13 17.8 SW 11 19 6 10 1009.2 1008.4 0.0
25/04:00pm 37.5 35.4 6.5 15 17.3 SE 7 17 4 9 1009.7 1008.8 0.0
25/03:30pm 39.8 37.1 7.3 14 18.5 ENE 11 22 6 12 1010.0 1009.1 0.0
25/03:00pm 37.6 35.1 6.6 15 17.3 NNW 9 17 5 9 1010.8 1010.0 0.0
25/02:30pm 38.1 35.4 8.8 17 17.0 NE 13 22 7 12 1011.2 1010.4 0.0
25/02:00pm 38.2 35.7 9.7 18 16.7 ESE 13 24 7 13 1011.7 1010.9 0.0
25/01:30pm 37.0 35.0 10.3 20 15.7 NE 11 19 6 10 1012.4 1011.6 0.0
25/01:00pm 36.1 33.2 9.6 20 15.4 N 15 20 8 11 1012.8 1012.0 0.0
25/12:30pm 34.9 32.5 10.0 22 14.5 NE 13 24 7 13 1013.3 1012.5 0.0
25/12:00pm 34.8 32.2 10.6 23 14.2 NE 15 20 8 11 1013.7 1012.9 0.0
25/11:30am 33.6 31.4 10.9 25 13.3 NE 13 24 7 13 1014.3 1013.5 0.0
25/11:00am 32.3 30.3 11.5 28 12.2 NE 13 20 7 11 1014.6 1013.8 0.0
25/10:30am 31.6 28.8 11.4 29 11.8 NE 17 28 9 15 1014.8 1014.0 0.0
25/10:00am 30.3 26.8 10.8 30 11.2 NE 20 26 11 14 1015.0 1014.2 0.0
25/09:30am 29.3 25.8 10.9 32 10.6 ENE 20 30 11 16 1015.0 1014.2 0.0
25/09:00am 28.3 24.6 11.4 35 9.7 ENE 22 30 12 16 1014.9 1014.1 0.0
25/08:30am 27.3 23.3 10.5 35 9.5 ENE 22 30 12 16 1014.8 1014.0 0.0
25/08:00am 26.0 22.6 10.6 38 8.7 E 19 24 10 13 1014.6 1013.8 0.0
25/07:30am 23.7 21.3 11.4 46 6.9 E 15 19 8 10 1014.4 1013.6 0.0
25/07:00am 22.4 20.5 10.5 47 6.6 ESE 11 15 6 8 1014.1 1013.3 0.0
25/06:30am 23.3 20.8 11.0 46 6.9 SE 15 19 8 10 1013.8 1013.0 0.0
25/06:00am 23.3 20.6 10.4 44 7.1 SSE 15 19 8 10 1013.6 1012.8 0.0
25/05:30am 23.4 22.1 9.8 42 7.5 SE 7 9 4 5 1013.2 1012.4 0.0
25/05:00am 24.0 21.9 9.6 40 7.9 SSE 11 15 6 8 1013.1 1012.3 0.0
25/04:30am 24.4 22.3 9.9 40 8.0 SSE 11 15 6 8 1013.0 1012.2 0.0
25/04:00am 25.2 23.4 11.0 41 8.0 SE 11 13 6 7 1012.8 1012.0 0.0
25/03:30am 25.7 24.2 10.7 39 8.4 SE 9 11 5 6 1013.1 1012.3 0.0
25/03:00am 25.0 23.3 8.5 35 8.9 SSE 7 9 4 5 1013.3 1012.5 0.0
25/02:30am 26.4 24.9 9.3 34 9.4 SSE 7 7 4 4 1013.4 1012.6 0.0
25/02:00am 27.9 26.0 10.6 34 9.8 SE 11 13 6 7 1013.5 1012.7 0.0
25/01:30am 28.1 26.8 9.9 32 10.2 SE 7 9 4 5 1013.8 1013.0 0.0
25/01:00am 27.7 25.7 8.6 30 10.5 SSE 9 13 5 7 1013.7 1012.9 0.0
25/12:30am 28.3 26.7 8.6 29 10.9 SSE 7 11 4 6 1013.7 1012.9 0.0
25/12:00am 27.5 24.7 6.8 27 11.0 SSE 11 15 6 8 1013.6 1012.8 0.0
 
Date/Time
EDT
Temp
°C
App
Temp
°C
Dew
Point
°C
Rel
Hum
%
Delta-T
°C
Wind Press
QNH
hPa
Press
MSL
hPa
Rain since
9am
mm
Dir  Spd
km/h
Gust
km/h
Spd
kts
Gust
kts
24/11:30pm 27.0 25.0 6.9 28 10.7 SE 7 11 4 6 1013.4 1012.6 0.0
24/11:00pm 27.8 25.3 6.6 26 11.3 SSE 9 11 5 6 1013.5 1012.7 0.0
24/10:30pm 27.6 25.6 6.4 26 11.2 S 6 7 3 4 1013.5 1012.7 0.0
24/10:00pm 28.4 26.5 6.5 25 11.6 SSW 6 7 3 4 1013.5 1012.7 0.0
24/09:30pm 29.8 27.9 6.5 23 12.5 SSW 6 7 3 4 1013.4 1012.6 0.0
24/09:00pm 31.3 29.0 5.7 20 13.7 SSE 7 11 4 6 1013.2 1012.4 0.0
24/08:30pm 34.0 31.4 6.3 18 15.1 SE 9 13 5 7 1012.9 1012.1 0.0
24/08:00pm 34.9 31.6 6.2 17 15.7 SSE 13 20 7 11 1012.7 1011.9 0.0
24/07:30pm 36.9 33.3 5.0 14 17.3 S 13 17 7 9 1012.4 1011.6 0.0
24/07:00pm 38.3 34.2 6.1 14 17.9 S 17 22 9 12 1012.4 1011.6 0.0
24/06:30pm 37.7 34.2 5.6 14 17.7 SSW 13 19 7 10 1012.4 1011.6 0.0
24/06:00pm 38.2 34.4 6.0 14 17.9 ESE 15 24 8 13 1012.3 1011.5 0.0
24/05:30pm 39.6 35.1 6.1 13 18.8 ESE 19 26 10 14 1012.5 1011.7 0.0
24/05:00pm 39.7 36.0 6.1 13 18.8 E 15 20 8 11 1012.5 1011.7 0.0
24/04:30pm 38.6 33.7 5.3 13 18.3 SSE 20 35 11 19 1012.9 1012.1 0.0
24/04:00pm 39.4 36.4 5.9 13 18.7 SSW 11 20 6 11 1013.2 1012.4 0.0
24/03:30pm 37.8 34.2 6.7 15 17.4 SSE 15 28 8 15 1013.7 1012.9 0.0
24/03:00pm 38.8 36.1 5.4 13 18.4 S 9 17 5 9 1014.1 1013.3 0.0
24/02:30pm 38.1 36.1 7.0 15 17.5 W 7 13 4 7 1014.5 1013.7 0.0
24/02:00pm 37.4 35.3 8.2 17 16.7 W 9 13 5 7 1015.0 1014.2 0.0
24/01:30pm 37.6 35.1 8.4 17 16.8 ENE 11 19 6 10 1015.5 1014.7 0.0
24/01:00pm 37.1 35.3 9.6 19 16.0 N 9 15 5 8 1016.2 1015.4 0.0
24/12:30pm 36.6 34.6 10.0 20 15.6 WSW 11 17 6 9 1016.8 1016.0 0.0
24/12:00pm 36.5 35.0 10.6 21 15.3 N 9 15 5 8 1017.3 1016.5 0.0
24/11:30am 34.7 33.6 10.5 23 14.2 NNW 7 13 4 7 1017.8 1017.0 0.0
24/11:00am 33.9 31.6 10.5 24 13.6 NW 13 19 7 10 1018.1 1017.3 0.0
24/10:30am 32.9 30.4 10.9 26 12.8 NW 15 20 8 11 1018.2 1017.4 0.0

Other Formats:

Comma delimited format used in spreadsheet applications
http://www.bom.gov.au/fwo/IDN60801/IDN60801.95715.axf

JavaScript Object Notation format (JSON) in row-major order
http://www.bom.gov.au/fwo/IDN60801/IDN60801.95715.json